AAL6049 KBNA-KLAX
Flight info
| Callsign | AAL6049 |
|---|---|
| Flight time | 4h 23m |
| Altitude | 32000 |
| Route | DANLS4 TPEEE ELD MULQN FDRER/N0456F340 EWM J4 WLVRN ESTWD HLYWD1 |
| Aircraft | A21N/M-SDE2E3FGHIRWXY/LB1 |
Departure
| Time | 2026-04-22 22:44 |
|---|---|
| Airport | Nashville International Airport (KBNA) |
Arrival
| Time | 2026-04-23 03:07 |
|---|---|
| Airport | Los Angeles International Airport (KLAX) |
| Time | Latitude | Longitude | Altitude | Speed | Heading |
|---|---|---|---|---|---|
| 2026-04-22 21:44 | 36.13278 | -86.67301 | 578 ft | 0 kts | 111° |
| 2026-04-22 22:10 | 36.13278 | -86.67302 | 578 ft | 1 kts | 111° |
| 2026-04-22 22:11 | 36.13289 | -86.67328 | 576 ft | 4 kts | 131° |
| 2026-04-22 22:11 | 36.13309 | -86.67345 | 576 ft | 4 kts | 176° |
| 2026-04-22 22:11 | 36.13325 | -86.67343 | 573 ft | 1 kts | 198° |
| 2026-04-22 22:11 | 36.13327 | -86.67342 | 572 ft | 0 kts | 198° |
| 2026-04-22 22:25 | 36.13279 | -86.67356 | 571 ft | 13 kts | 191° |
| 2026-04-22 22:25 | 36.13157 | -86.67370 | 573 ft | 22 kts | 185° |
| 2026-04-22 22:25 | 36.13009 | -86.67351 | 577 ft | 21 kts | 153° |
| 2026-04-22 22:26 | 36.12941 | -86.67290 | 572 ft | 17 kts | 142° |
| 2026-04-22 22:26 | 36.12857 | -86.67274 | 573 ft | 0 kts | 210° |
| 2026-04-22 22:27 | 36.12841 | -86.67287 | 574 ft | 11 kts | 215° |
| 2026-04-22 22:28 | 36.12773 | -86.67362 | 578 ft | 13 kts | 223° |
| 2026-04-22 22:28 | 36.12706 | -86.67432 | 574 ft | 13 kts | 213° |
| 2026-04-22 22:28 | 36.12653 | -86.67470 | 576 ft | 0 kts | 210° |
| 2026-04-22 22:31 | 36.12640 | -86.67479 | 579 ft | 10 kts | 210° |
| 2026-04-22 22:32 | 36.12570 | -86.67541 | 580 ft | 13 kts | 223° |
| 2026-04-22 22:32 | 36.12507 | -86.67614 | 577 ft | 12 kts | 224° |
| 2026-04-22 22:32 | 36.12433 | -86.67675 | 579 ft | 15 kts | 199° |
| 2026-04-22 22:32 | 36.12359 | -86.67748 | 574 ft | 15 kts | 263° |
| 2026-04-22 22:33 | 36.12380 | -86.67850 | 573 ft | 0 kts | 289° |
| 2026-04-22 22:42 | 36.12388 | -86.67878 | 571 ft | 8 kts | 289° |
| 2026-04-22 22:42 | 36.12388 | -86.67954 | 569 ft | 10 kts | 244° |
| 2026-04-22 22:42 | 36.12335 | -86.67995 | 571 ft | 11 kts | 198° |
| 2026-04-22 22:43 | 36.12073 | -86.68099 | 572 ft | 73 kts | 197° |
| 2026-04-22 22:43 | 36.11378 | -86.68377 | 588 ft | 140 kts | 198° |
| 2026-04-22 22:43 | 36.10270 | -86.68808 | 649 ft | 186 kts | 197° |
| 2026-04-22 22:43 | 36.09017 | -86.69319 | 1086 ft | 192 kts | 197° |
| 2026-04-22 22:44 | 36.07721 | -86.69840 | 1612 ft | 199 kts | 197° |
| 2026-04-22 22:44 | 36.06386 | -86.70407 | 2165 ft | 206 kts | 202° |
| 2026-04-22 22:44 | 36.05357 | -86.71595 | 2779 ft | 209 kts | 243° |
| 2026-04-22 22:44 | 36.05173 | -86.73422 | 3054 ft | 229 kts | 280° |
| 2026-04-22 22:45 | 36.05449 | -86.75433 | 3447 ft | 243 kts | 276° |
| 2026-04-22 22:45 | 36.05741 | -86.77502 | 4033 ft | 247 kts | 294° |
| 2026-04-22 22:45 | 36.06600 | -86.79338 | 4682 ft | 248 kts | 299° |
| 2026-04-22 22:45 | 36.07239 | -86.81334 | 5344 ft | 251 kts | 289° |
| 2026-04-22 22:46 | 36.07763 | -86.83408 | 5984 ft | 256 kts | 287° |
| 2026-04-22 22:46 | 36.08256 | -86.85584 | 6499 ft | 269 kts | 285° |
| 2026-04-22 22:46 | 36.08710 | -86.87913 | 6933 ft | 288 kts | 279° |
| 2026-04-22 22:46 | 36.08921 | -86.90487 | 7319 ft | 307 kts | 274° |
| 2026-04-22 22:47 | 36.09017 | -86.93082 | 8303 ft | 301 kts | 272° |
| 2026-04-22 22:47 | 36.09096 | -86.95616 | 9496 ft | 290 kts | 272° |
| 2026-04-22 22:47 | 36.09175 | -86.98126 | 10445 ft | 290 kts | 272° |
| 2026-04-22 22:47 | 36.09257 | -87.00668 | 10824 ft | 311 kts | 272° |
| 2026-04-22 22:48 | 36.09350 | -87.03485 | 11199 ft | 334 kts | 272° |
| 2026-04-22 22:48 | 36.09445 | -87.06363 | 11885 ft | 344 kts | 272° |
| 2026-04-22 22:48 | 36.09544 | -87.09342 | 12738 ft | 349 kts | 272° |
| 2026-04-22 22:48 | 36.09643 | -87.12356 | 13599 ft | 354 kts | 272° |
| 2026-04-22 22:49 | 36.09743 | -87.15421 | 14369 ft | 358 kts | 272° |
| 2026-04-22 22:49 | 36.09842 | -87.18501 | 14824 ft | 360 kts | 272° |
| 2026-04-22 22:49 | 36.09805 | -87.21599 | 14969 ft | 361 kts | 264° |
| 2026-04-22 22:49 | 36.09381 | -87.24676 | 14981 ft | 363 kts | 257° |
| 2026-04-22 22:50 | 36.08791 | -87.27712 | 14979 ft | 364 kts | 256° |
| 2026-04-22 22:50 | 36.08170 | -87.30749 | 14980 ft | 364 kts | 256° |
| 2026-04-22 22:50 | 36.07550 | -87.33779 | 14980 ft | 364 kts | 256° |
| 2026-04-22 22:50 | 36.06930 | -87.36818 | 14980 ft | 364 kts | 256° |
| 2026-04-22 22:51 | 36.06314 | -87.39853 | 14980 ft | 364 kts | 256° |
| 2026-04-22 22:51 | 36.05699 | -87.42883 | 14980 ft | 364 kts | 256° |
| 2026-04-22 22:51 | 36.05083 | -87.45917 | 14980 ft | 364 kts | 256° |
| 2026-04-22 22:51 | 36.04467 | -87.48955 | 14980 ft | 364 kts | 256° |
| 2026-04-22 22:52 | 36.03850 | -87.51989 | 14983 ft | 364 kts | 256° |
| 2026-04-22 22:52 | 36.03232 | -87.55028 | 14984 ft | 364 kts | 256° |
| 2026-04-22 22:52 | 36.02612 | -87.58073 | 15134 ft | 367 kts | 256° |
| 2026-04-22 22:52 | 36.01987 | -87.61144 | 15860 ft | 370 kts | 256° |
| 2026-04-22 22:53 | 36.01357 | -87.64228 | 16652 ft | 372 kts | 256° |
| 2026-04-22 22:53 | 36.00722 | -87.67336 | 17367 ft | 375 kts | 256° |
| 2026-04-22 22:53 | 36.00079 | -87.70475 | 18045 ft | 379 kts | 256° |
| 2026-04-22 22:53 | 35.99429 | -87.73648 | 18698 ft | 383 kts | 256° |
| 2026-04-22 22:54 | 35.98772 | -87.76844 | 19350 ft | 386 kts | 256° |
| 2026-04-22 22:54 | 35.98107 | -87.80077 | 19977 ft | 390 kts | 256° |
| 2026-04-22 22:54 | 35.97437 | -87.83335 | 20586 ft | 393 kts | 256° |
| 2026-04-22 22:54 | 35.96759 | -87.86622 | 21157 ft | 397 kts | 256° |
| 2026-04-22 22:55 | 35.96073 | -87.89944 | 21729 ft | 400 kts | 256° |
| 2026-04-22 22:55 | 35.95382 | -87.93285 | 22264 ft | 403 kts | 256° |
| 2026-04-22 22:55 | 35.93981 | -88.00040 | 23269 ft | 409 kts | 256° |
| 2026-04-22 22:56 | 35.93271 | -88.03462 | 23752 ft | 412 kts | 256° |
| 2026-04-22 22:56 | 35.92555 | -88.06899 | 24206 ft | 415 kts | 256° |
| 2026-04-22 22:56 | 35.91833 | -88.10364 | 24649 ft | 418 kts | 256° |
| 2026-04-22 22:56 | 35.91104 | -88.13858 | 25078 ft | 421 kts | 256° |
| 2026-04-22 22:57 | 35.90371 | -88.17362 | 25493 ft | 423 kts | 255° |
| 2026-04-22 22:57 | 35.89643 | -88.20841 | 25883 ft | 426 kts | 255° |
| 2026-04-22 22:57 | 35.88888 | -88.24441 | 26281 ft | 428 kts | 255° |
| 2026-04-22 22:57 | 35.88139 | -88.28007 | 26655 ft | 431 kts | 255° |
| 2026-04-22 22:58 | 35.87396 | -88.31546 | 27011 ft | 433 kts | 255° |
| 2026-04-22 22:58 | 35.86642 | -88.35150 | 27362 ft | 435 kts | 255° |
| 2026-04-22 22:58 | 35.85884 | -88.38775 | 27703 ft | 437 kts | 256° |
| 2026-04-22 22:58 | 35.85372 | -88.41230 | 27937 ft | 439 kts | 256° |
| 2026-04-22 22:59 | 35.84362 | -88.46075 | 28358 ft | 442 kts | 256° |
| 2026-04-22 22:59 | 35.83845 | -88.48559 | 28569 ft | 443 kts | 256° |
| 2026-04-22 22:59 | 35.83077 | -88.52254 | 28875 ft | 445 kts | 256° |
| 2026-04-22 22:59 | 35.82311 | -88.55951 | 29222 ft | 446 kts | 256° |
| 2026-04-22 23:00 | 35.81544 | -88.59657 | 29639 ft | 444 kts | 256° |
| 2026-04-22 23:00 | 35.80786 | -88.63328 | 30036 ft | 443 kts | 256° |
| 2026-04-22 23:00 | 35.79782 | -88.68195 | 30516 ft | 442 kts | 256° |
| 2026-04-22 23:00 | 35.79272 | -88.70674 | 30757 ft | 442 kts | 256° |
| 2026-04-22 23:01 | 35.78519 | -88.74338 | 31097 ft | 441 kts | 256° |
| 2026-04-22 23:01 | 35.77769 | -88.77998 | 31427 ft | 441 kts | 256° |
| 2026-04-22 23:01 | 35.77020 | -88.81655 | 31741 ft | 440 kts | 256° |
| 2026-04-22 23:01 | 35.76270 | -88.85315 | 31951 ft | 441 kts | 256° |
| 2026-04-22 23:02 | 35.74771 | -88.92626 | 31978 ft | 440 kts | 256° |
| 2026-04-22 23:02 | 35.73280 | -88.99931 | 31982 ft | 440 kts | 256° |
| 2026-04-22 23:03 | 35.71175 | -89.06977 | 31978 ft | 439 kts | 240° |
| 2026-04-22 23:03 | 35.67743 | -89.13188 | 31982 ft | 439 kts | 233° |
| 2026-04-22 23:04 | 35.63973 | -89.19112 | 31979 ft | 440 kts | 231° |
| 2026-04-22 23:04 | 35.60153 | -89.24981 | 31982 ft | 440 kts | 231° |
| 2026-04-22 23:05 | 35.56352 | -89.30869 | 31981 ft | 440 kts | 231° |
| 2026-04-22 23:05 | 35.52569 | -89.36769 | 31980 ft | 440 kts | 231° |
| 2026-04-22 23:06 | 35.48785 | -89.42675 | 31979 ft | 440 kts | 231° |
| 2026-04-22 23:06 | 35.45000 | -89.48574 | 31979 ft | 440 kts | 231° |
| 2026-04-22 23:07 | 35.41216 | -89.54457 | 31980 ft | 440 kts | 231° |
| 2026-04-22 23:07 | 35.37449 | -89.60304 | 31979 ft | 440 kts | 231° |
| 2026-04-22 23:08 | 35.33656 | -89.66180 | 31980 ft | 440 kts | 231° |
| 2026-04-22 23:08 | 35.29854 | -89.72062 | 31981 ft | 440 kts | 231° |
| 2026-04-22 23:09 | 35.26051 | -89.77934 | 31979 ft | 440 kts | 231° |
| 2026-04-22 23:09 | 35.22244 | -89.83802 | 31979 ft | 440 kts | 231° |
| 2026-04-22 23:10 | 35.18437 | -89.89662 | 31982 ft | 440 kts | 231° |
| 2026-04-22 23:10 | 35.14621 | -89.95523 | 31983 ft | 440 kts | 231° |
| 2026-04-22 23:11 | 35.10834 | -90.01332 | 31983 ft | 440 kts | 231° |
| 2026-04-22 23:11 | 35.07014 | -90.07181 | 31981 ft | 440 kts | 231° |
| 2026-04-22 23:12 | 35.03199 | -90.13014 | 31980 ft | 440 kts | 231° |
| 2026-04-22 23:12 | 34.99379 | -90.18844 | 31979 ft | 440 kts | 231° |
| 2026-04-22 23:13 | 34.95556 | -90.24671 | 31983 ft | 440 kts | 231° |
| 2026-04-22 23:13 | 34.91734 | -90.30488 | 31978 ft | 440 kts | 231° |
| 2026-04-22 23:14 | 34.87907 | -90.36301 | 31978 ft | 440 kts | 231° |
| 2026-04-22 23:14 | 34.84077 | -90.42107 | 31979 ft | 440 kts | 231° |
| 2026-04-22 23:15 | 34.80244 | -90.47908 | 31979 ft | 440 kts | 231° |
| 2026-04-22 23:15 | 34.76412 | -90.53712 | 31978 ft | 439 kts | 233° |
| 2026-04-22 23:16 | 34.72587 | -90.59510 | 31982 ft | 440 kts | 231° |
| 2026-04-22 23:16 | 34.68736 | -90.65283 | 31983 ft | 440 kts | 231° |
| 2026-04-22 23:17 | 34.64887 | -90.71053 | 31979 ft | 440 kts | 231° |
| 2026-04-22 23:17 | 34.61037 | -90.76827 | 31979 ft | 440 kts | 231° |
| 2026-04-22 23:18 | 34.57210 | -90.82563 | 31980 ft | 440 kts | 231° |
| 2026-04-22 23:18 | 34.53360 | -90.88325 | 31982 ft | 440 kts | 231° |
| 2026-04-22 23:19 | 34.49506 | -90.94083 | 31982 ft | 440 kts | 231° |
| 2026-04-22 23:19 | 34.45645 | -90.99842 | 31980 ft | 440 kts | 231° |
| 2026-04-22 23:20 | 34.41787 | -91.05587 | 31978 ft | 440 kts | 231° |
| 2026-04-22 23:20 | 34.37923 | -91.11331 | 31981 ft | 440 kts | 230° |
| 2026-04-22 23:21 | 34.34054 | -91.17073 | 31983 ft | 440 kts | 230° |
| 2026-04-22 23:21 | 34.30184 | -91.22809 | 31980 ft | 440 kts | 230° |
| 2026-04-22 23:22 | 34.26313 | -91.28535 | 31982 ft | 440 kts | 230° |
| 2026-04-22 23:22 | 34.22457 | -91.34231 | 31980 ft | 440 kts | 230° |
| 2026-04-22 23:23 | 34.18578 | -91.39952 | 31983 ft | 440 kts | 230° |
| 2026-04-22 23:23 | 34.14700 | -91.45661 | 31984 ft | 440 kts | 230° |
| 2026-04-22 23:24 | 34.10817 | -91.51369 | 31978 ft | 440 kts | 230° |
| 2026-04-22 23:24 | 34.06925 | -91.57082 | 31981 ft | 440 kts | 230° |
| 2026-04-22 23:25 | 34.03058 | -91.62748 | 31978 ft | 440 kts | 230° |
| 2026-04-22 23:25 | 33.99167 | -91.68440 | 31983 ft | 440 kts | 230° |
| 2026-04-22 23:26 | 33.95272 | -91.74130 | 31979 ft | 440 kts | 230° |
| 2026-04-22 23:26 | 33.91380 | -91.79806 | 31980 ft | 440 kts | 230° |
| 2026-04-22 23:27 | 33.87483 | -91.85480 | 31979 ft | 440 kts | 230° |
| 2026-04-22 23:27 | 33.83581 | -91.91153 | 31979 ft | 440 kts | 230° |
| 2026-04-22 23:28 | 33.79676 | -91.96821 | 31979 ft | 440 kts | 230° |
| 2026-04-22 23:28 | 33.75768 | -92.02484 | 31980 ft | 440 kts | 230° |
| 2026-04-22 23:29 | 33.71860 | -92.08138 | 31983 ft | 440 kts | 230° |
| 2026-04-22 23:29 | 33.67949 | -92.13788 | 31980 ft | 440 kts | 230° |
| 2026-04-22 23:30 | 33.64064 | -92.19392 | 31982 ft | 440 kts | 230° |
| 2026-04-22 23:30 | 33.60152 | -92.25040 | 31977 ft | 440 kts | 230° |
| 2026-04-22 23:31 | 33.56237 | -92.30677 | 31977 ft | 440 kts | 230° |
| 2026-04-22 23:31 | 33.52311 | -92.36301 | 31982 ft | 440 kts | 230° |
| 2026-04-22 23:32 | 33.48382 | -92.41924 | 31978 ft | 440 kts | 230° |
| 2026-04-22 23:32 | 33.44449 | -92.47552 | 31978 ft | 440 kts | 230° |
| 2026-04-22 23:33 | 33.40521 | -92.53164 | 31981 ft | 440 kts | 230° |
| 2026-04-22 23:33 | 33.36591 | -92.58772 | 31980 ft | 440 kts | 230° |
| 2026-04-22 23:34 | 33.32658 | -92.64375 | 31983 ft | 440 kts | 230° |
| 2026-04-22 23:34 | 33.28736 | -92.69986 | 31976 ft | 440 kts | 232° |
| 2026-04-22 23:35 | 33.25702 | -92.76298 | 31980 ft | 439 kts | 250° |
| 2026-04-22 23:35 | 33.24202 | -92.83325 | 31981 ft | 440 kts | 259° |
| 2026-04-22 23:36 | 33.23122 | -92.90520 | 31983 ft | 440 kts | 261° |
| 2026-04-22 23:36 | 33.22101 | -92.97728 | 31979 ft | 440 kts | 260° |
| 2026-04-22 23:37 | 33.21048 | -93.04927 | 31980 ft | 440 kts | 260° |
| 2026-04-22 23:37 | 33.19967 | -93.12119 | 31978 ft | 440 kts | 260° |
| 2026-04-22 23:38 | 33.18873 | -93.19310 | 31982 ft | 440 kts | 259° |
| 2026-04-22 23:38 | 33.17776 | -93.26495 | 31977 ft | 440 kts | 259° |
| 2026-04-22 23:39 | 33.16676 | -93.33679 | 31983 ft | 440 kts | 259° |
| 2026-04-22 23:39 | 33.15573 | -93.40862 | 31977 ft | 440 kts | 259° |
| 2026-04-22 23:40 | 33.14653 | -93.46832 | 31983 ft | 440 kts | 259° |
| 2026-04-22 23:40 | 33.13541 | -93.54020 | 31978 ft | 440 kts | 259° |
| 2026-04-22 23:41 | 33.12424 | -93.61204 | 31983 ft | 440 kts | 259° |
| 2026-04-22 23:41 | 33.11311 | -93.68341 | 31977 ft | 440 kts | 259° |
| 2026-04-22 23:42 | 33.10187 | -93.75523 | 31980 ft | 440 kts | 259° |
| 2026-04-22 23:42 | 33.09058 | -93.82702 | 31981 ft | 440 kts | 259° |
| 2026-04-22 23:43 | 33.07926 | -93.89875 | 31977 ft | 440 kts | 259° |
| 2026-04-22 23:43 | 33.06790 | -93.97046 | 31978 ft | 440 kts | 259° |
| 2026-04-22 23:44 | 33.05650 | -94.04214 | 31980 ft | 440 kts | 259° |
| 2026-04-22 23:44 | 33.04506 | -94.11382 | 31983 ft | 440 kts | 259° |
| 2026-04-22 23:45 | 33.03357 | -94.18553 | 31983 ft | 440 kts | 259° |
| 2026-04-22 23:45 | 33.02204 | -94.25719 | 31983 ft | 440 kts | 259° |
| 2026-04-22 23:46 | 33.01048 | -94.32878 | 31983 ft | 440 kts | 259° |
| 2026-04-22 23:46 | 32.99895 | -94.39993 | 31980 ft | 440 kts | 259° |
| 2026-04-22 23:47 | 32.98730 | -94.47151 | 31978 ft | 440 kts | 259° |
| 2026-04-22 23:47 | 32.97560 | -94.54318 | 31979 ft | 440 kts | 259° |
| 2026-04-22 23:48 | 32.96387 | -94.61473 | 31981 ft | 440 kts | 259° |
| 2026-04-22 23:48 | 32.95210 | -94.68623 | 31981 ft | 440 kts | 259° |
| 2026-04-22 23:49 | 32.94029 | -94.75774 | 31981 ft | 440 kts | 259° |
| 2026-04-22 23:49 | 32.92844 | -94.82923 | 31983 ft | 440 kts | 259° |
| 2026-04-22 23:50 | 32.91655 | -94.90069 | 31980 ft | 440 kts | 259° |
| 2026-04-22 23:50 | 32.90469 | -94.97174 | 31981 ft | 440 kts | 259° |
| 2026-04-22 23:51 | 32.89270 | -95.04322 | 31978 ft | 440 kts | 259° |
| 2026-04-22 23:51 | 32.88069 | -95.11464 | 31981 ft | 440 kts | 258° |
| 2026-04-22 23:52 | 32.86863 | -95.18608 | 31978 ft | 440 kts | 258° |
| 2026-04-22 23:52 | 32.85654 | -95.25744 | 31981 ft | 440 kts | 258° |
| 2026-04-22 23:53 | 32.84440 | -95.32881 | 31982 ft | 440 kts | 258° |
| 2026-04-22 23:53 | 32.83222 | -95.40016 | 31977 ft | 440 kts | 258° |
| 2026-04-22 23:54 | 32.81999 | -95.47156 | 31980 ft | 440 kts | 258° |
| 2026-04-22 23:54 | 32.80774 | -95.54282 | 31977 ft | 440 kts | 258° |
| 2026-04-22 23:55 | 32.79544 | -95.61413 | 31982 ft | 440 kts | 258° |
| 2026-04-22 23:55 | 32.78309 | -95.68544 | 31980 ft | 440 kts | 258° |
| 2026-04-22 23:56 | 32.77079 | -95.75626 | 31983 ft | 440 kts | 258° |
| 2026-04-22 23:56 | 32.75882 | -95.82761 | 31977 ft | 440 kts | 262° |
| 2026-04-22 23:57 | 32.75637 | -95.90021 | 31982 ft | 440 kts | 270° |
| 2026-04-22 23:57 | 32.75762 | -95.97291 | 31980 ft | 440 kts | 272° |
| 2026-04-22 23:58 | 32.75955 | -96.04553 | 31978 ft | 440 kts | 272° |
| 2026-04-22 23:58 | 32.76137 | -96.11826 | 31983 ft | 440 kts | 272° |
| 2026-04-22 23:59 | 32.76298 | -96.19043 | 31978 ft | 440 kts | 271° |
| 2026-04-22 23:59 | 32.76449 | -96.26312 | 31982 ft | 440 kts | 271° |
| 2026-04-23 00:00 | 32.76668 | -96.37208 | 31978 ft | 440 kts | 271° |
| 2026-04-23 00:01 | 32.76809 | -96.44478 | 31983 ft | 440 kts | 271° |
| 2026-04-23 00:01 | 32.76946 | -96.51746 | 31977 ft | 440 kts | 271° |
| 2026-04-23 00:02 | 32.77079 | -96.59017 | 31983 ft | 440 kts | 271° |
| 2026-04-23 00:02 | 32.77208 | -96.66284 | 31978 ft | 440 kts | 271° |
| 2026-04-23 00:03 | 32.77333 | -96.73555 | 31978 ft | 440 kts | 271° |
| 2026-04-23 00:03 | 32.77453 | -96.80823 | 31983 ft | 440 kts | 271° |
| 2026-04-23 00:04 | 32.77569 | -96.88091 | 31983 ft | 440 kts | 271° |
| 2026-04-23 00:04 | 32.77681 | -96.95313 | 31977 ft | 440 kts | 271° |
| 2026-04-23 00:05 | 32.77789 | -97.02587 | 31983 ft | 440 kts | 271° |
| 2026-04-23 00:05 | 32.77892 | -97.09860 | 31978 ft | 440 kts | 271° |
| 2026-04-23 00:06 | 32.77992 | -97.17130 | 31978 ft | 440 kts | 271° |
| 2026-04-23 00:06 | 32.78087 | -97.24413 | 31983 ft | 440 kts | 271° |
| 2026-04-23 00:07 | 32.78178 | -97.31681 | 31982 ft | 440 kts | 271° |
| 2026-04-23 00:07 | 32.78265 | -97.38949 | 31979 ft | 440 kts | 271° |
| 2026-04-23 00:08 | 32.78348 | -97.46213 | 31981 ft | 440 kts | 271° |
| 2026-04-23 00:08 | 32.78426 | -97.53486 | 31978 ft | 440 kts | 271° |
| 2026-04-23 00:09 | 32.78500 | -97.60710 | 31978 ft | 440 kts | 271° |
| 2026-04-23 00:09 | 32.78570 | -97.67984 | 31978 ft | 440 kts | 271° |
| 2026-04-23 00:10 | 32.78636 | -97.75253 | 31982 ft | 440 kts | 271° |
| 2026-04-23 00:10 | 32.78698 | -97.82522 | 31983 ft | 440 kts | 271° |
| 2026-04-23 00:11 | 32.78755 | -97.89792 | 31982 ft | 440 kts | 271° |
| 2026-04-23 00:11 | 32.78808 | -97.97067 | 31983 ft | 440 kts | 270° |
| 2026-04-23 00:12 | 32.78857 | -98.04338 | 31978 ft | 440 kts | 270° |
| 2026-04-23 00:12 | 32.78902 | -98.11612 | 31977 ft | 440 kts | 270° |
| 2026-04-23 00:13 | 32.78943 | -98.18884 | 31984 ft | 440 kts | 270° |
| 2026-04-23 00:13 | 32.78979 | -98.26157 | 31979 ft | 440 kts | 270° |
| 2026-04-23 00:14 | 32.79012 | -98.33382 | 31983 ft | 440 kts | 270° |
| 2026-04-23 00:14 | 32.79040 | -98.40654 | 31982 ft | 440 kts | 270° |
| 2026-04-23 00:15 | 32.79064 | -98.47925 | 31982 ft | 440 kts | 270° |
| 2026-04-23 00:15 | 32.79083 | -98.55192 | 31983 ft | 440 kts | 270° |
| 2026-04-23 00:16 | 32.79099 | -98.62462 | 31981 ft | 440 kts | 270° |
| 2026-04-23 00:16 | 32.79110 | -98.69737 | 31980 ft | 440 kts | 270° |
| 2026-04-23 00:17 | 32.79117 | -98.77011 | 31980 ft | 440 kts | 270° |
| 2026-04-23 00:17 | 32.79120 | -98.84280 | 31980 ft | 440 kts | 270° |
| 2026-04-23 00:18 | 32.79119 | -98.91550 | 31980 ft | 440 kts | 270° |
| 2026-04-23 00:18 | 32.79113 | -98.98839 | 31980 ft | 440 kts | 270° |
| 2026-04-23 00:19 | 32.79104 | -99.06063 | 31980 ft | 440 kts | 270° |
| 2026-04-23 00:19 | 32.79090 | -99.13339 | 31976 ft | 440 kts | 270° |
| 2026-04-23 00:20 | 32.79071 | -99.20668 | 31980 ft | 440 kts | 270° |
| 2026-04-23 00:20 | 32.79049 | -99.27935 | 31978 ft | 440 kts | 270° |
| 2026-04-23 00:21 | 32.78857 | -99.35199 | 31979 ft | 440 kts | 265° |
| 2026-04-23 00:21 | 32.78369 | -99.41224 | 31981 ft | 440 kts | 264° |
| 2026-04-23 00:22 | 32.77697 | -99.48461 | 31981 ft | 440 kts | 263° |
| 2026-04-23 00:22 | 32.77004 | -99.55684 | 31978 ft | 440 kts | 263° |
| 2026-04-23 00:23 | 32.76313 | -99.62910 | 31978 ft | 440 kts | 263° |
| 2026-04-23 00:23 | 32.75623 | -99.70139 | 31981 ft | 440 kts | 263° |
| 2026-04-23 00:24 | 32.74931 | -99.77367 | 31980 ft | 440 kts | 263° |
| 2026-04-23 00:24 | 32.74235 | -99.84592 | 31981 ft | 440 kts | 263° |
| 2026-04-23 00:25 | 32.73534 | -99.91823 | 31978 ft | 440 kts | 263° |
| 2026-04-23 00:25 | 32.72830 | -99.99043 | 31983 ft | 440 kts | 263° |
| 2026-04-23 00:26 | 32.72126 | -100.06217 | 31980 ft | 440 kts | 263° |
| 2026-04-23 00:26 | 32.71413 | -100.13440 | 31983 ft | 440 kts | 263° |
| 2026-04-23 00:27 | 32.70697 | -100.20654 | 31976 ft | 440 kts | 263° |
| 2026-04-23 00:27 | 32.69976 | -100.27872 | 31981 ft | 440 kts | 263° |
| 2026-04-23 00:28 | 32.69251 | -100.35089 | 31980 ft | 440 kts | 263° |
| 2026-04-23 00:28 | 32.68522 | -100.42300 | 31978 ft | 440 kts | 263° |
| 2026-04-23 00:29 | 32.67789 | -100.49513 | 31976 ft | 440 kts | 263° |
| 2026-04-23 00:29 | 32.67050 | -100.56734 | 31978 ft | 440 kts | 263° |
| 2026-04-23 00:30 | 32.66308 | -100.63948 | 31981 ft | 440 kts | 263° |
| 2026-04-23 00:30 | 32.65563 | -100.71154 | 31983 ft | 440 kts | 263° |
| 2026-04-23 00:31 | 32.64813 | -100.78368 | 31980 ft | 440 kts | 263° |
| 2026-04-23 00:31 | 32.64059 | -100.85569 | 31978 ft | 440 kts | 263° |
| 2026-04-23 00:32 | 32.63301 | -100.92779 | 31982 ft | 440 kts | 263° |
| 2026-04-23 00:32 | 32.62539 | -100.99980 | 31983 ft | 440 kts | 263° |
| 2026-04-23 00:33 | 32.61772 | -101.07190 | 31978 ft | 440 kts | 263° |
| 2026-04-23 00:33 | 32.61006 | -101.14354 | 31977 ft | 440 kts | 263° |
| 2026-04-23 00:34 | 32.60232 | -101.21551 | 31983 ft | 440 kts | 263° |
| 2026-04-23 00:34 | 32.59453 | -101.28755 | 31978 ft | 440 kts | 263° |
| 2026-04-23 00:35 | 32.58671 | -101.35949 | 31980 ft | 440 kts | 263° |
| 2026-04-23 00:35 | 32.57883 | -101.43159 | 31978 ft | 440 kts | 263° |
| 2026-04-23 00:36 | 32.57091 | -101.50364 | 31978 ft | 440 kts | 263° |
| 2026-04-23 00:36 | 32.56296 | -101.57555 | 31978 ft | 440 kts | 263° |
| 2026-04-23 00:37 | 32.55502 | -101.64709 | 31981 ft | 440 kts | 262° |
| 2026-04-23 00:37 | 32.54697 | -101.71911 | 31983 ft | 440 kts | 262° |
| 2026-04-23 00:38 | 32.53890 | -101.79100 | 31982 ft | 440 kts | 262° |
| 2026-04-23 00:38 | 32.53078 | -101.86294 | 31980 ft | 440 kts | 262° |
| 2026-04-23 00:39 | 32.52261 | -101.93499 | 31982 ft | 440 kts | 262° |
| 2026-04-23 00:39 | 32.51447 | -102.00638 | 31976 ft | 440 kts | 262° |
| 2026-04-23 00:40 | 32.50623 | -102.07831 | 31981 ft | 440 kts | 262° |
| 2026-04-23 00:40 | 32.49795 | -102.15015 | 31983 ft | 440 kts | 262° |
| 2026-04-23 00:41 | 32.48963 | -102.22199 | 31981 ft | 440 kts | 262° |
| 2026-04-23 00:41 | 32.48127 | -102.29383 | 31982 ft | 440 kts | 262° |
| 2026-04-23 00:42 | 32.47287 | -102.36565 | 31980 ft | 440 kts | 262° |
| 2026-04-23 00:42 | 32.46442 | -102.43750 | 31979 ft | 440 kts | 262° |
| 2026-04-23 00:43 | 32.45594 | -102.50929 | 31981 ft | 440 kts | 262° |
| 2026-04-23 00:43 | 32.44747 | -102.58065 | 31981 ft | 440 kts | 262° |
| 2026-04-23 00:44 | 32.43891 | -102.65239 | 31983 ft | 440 kts | 262° |
| 2026-04-23 00:44 | 32.43030 | -102.72415 | 31983 ft | 440 kts | 262° |
| 2026-04-23 00:45 | 32.42166 | -102.79587 | 31983 ft | 440 kts | 262° |
| 2026-04-23 00:45 | 32.41297 | -102.86762 | 31977 ft | 440 kts | 262° |
| 2026-04-23 00:46 | 32.40423 | -102.93940 | 31981 ft | 440 kts | 262° |
| 2026-04-23 00:46 | 32.39547 | -103.01108 | 31981 ft | 440 kts | 262° |
| 2026-04-23 00:47 | 32.38665 | -103.08282 | 31979 ft | 440 kts | 262° |
| 2026-04-23 00:47 | 32.37781 | -103.15448 | 31983 ft | 440 kts | 262° |
| 2026-04-23 00:48 | 32.36897 | -103.22569 | 31983 ft | 440 kts | 262° |
| 2026-04-23 00:48 | 32.36005 | -103.29731 | 31981 ft | 440 kts | 262° |
| 2026-04-23 00:49 | 32.35108 | -103.36893 | 31980 ft | 440 kts | 262° |
| 2026-04-23 00:49 | 32.34207 | -103.44053 | 31983 ft | 440 kts | 262° |
| 2026-04-23 00:50 | 32.33302 | -103.51214 | 31982 ft | 440 kts | 262° |
| 2026-04-23 00:50 | 32.32393 | -103.58375 | 31983 ft | 440 kts | 261° |
| 2026-04-23 00:51 | 32.31478 | -103.65541 | 31979 ft | 440 kts | 261° |
| 2026-04-23 00:51 | 32.30560 | -103.72701 | 31983 ft | 440 kts | 261° |
| 2026-04-23 00:52 | 32.29640 | -103.79850 | 31983 ft | 440 kts | 261° |
| 2026-04-23 00:52 | 32.28714 | -103.87005 | 31981 ft | 440 kts | 261° |
| 2026-04-23 00:53 | 32.27791 | -103.94112 | 31980 ft | 440 kts | 261° |
| 2026-04-23 00:53 | 32.26857 | -104.01263 | 31978 ft | 440 kts | 261° |
| 2026-04-23 00:54 | 32.25921 | -104.08406 | 31978 ft | 440 kts | 261° |
| 2026-04-23 00:54 | 32.24980 | -104.15552 | 31979 ft | 440 kts | 261° |
| 2026-04-23 00:55 | 32.24035 | -104.22695 | 31981 ft | 440 kts | 261° |
| 2026-04-23 00:55 | 32.23084 | -104.29848 | 31977 ft | 440 kts | 261° |
| 2026-04-23 00:56 | 32.22131 | -104.36991 | 31979 ft | 440 kts | 261° |
| 2026-04-23 00:56 | 32.21173 | -104.44134 | 31978 ft | 440 kts | 261° |
| 2026-04-23 00:57 | 32.20211 | -104.51279 | 31983 ft | 440 kts | 261° |
| 2026-04-23 00:57 | 32.19245 | -104.58420 | 31982 ft | 440 kts | 261° |
| 2026-04-23 00:58 | 32.18276 | -104.65554 | 31981 ft | 440 kts | 261° |
| 2026-04-23 00:58 | 32.17302 | -104.72689 | 31983 ft | 440 kts | 261° |
| 2026-04-23 00:59 | 32.16332 | -104.79772 | 31981 ft | 440 kts | 261° |
| 2026-04-23 00:59 | 32.15349 | -104.86910 | 31980 ft | 440 kts | 261° |
| 2026-04-23 01:00 | 32.14364 | -104.94038 | 31981 ft | 440 kts | 261° |
| 2026-04-23 01:00 | 32.13374 | -105.01174 | 31982 ft | 440 kts | 261° |
| 2026-04-23 01:01 | 32.12380 | -105.08303 | 31981 ft | 440 kts | 261° |
| 2026-04-23 01:01 | 32.11383 | -105.15426 | 31980 ft | 440 kts | 261° |
| 2026-04-23 01:02 | 32.10381 | -105.22554 | 31980 ft | 440 kts | 261° |
| 2026-04-23 01:02 | 32.09376 | -105.29671 | 31977 ft | 440 kts | 261° |
| 2026-04-23 01:03 | 32.08366 | -105.36797 | 31981 ft | 440 kts | 261° |
| 2026-04-23 01:03 | 32.07354 | -105.43911 | 31981 ft | 440 kts | 261° |
| 2026-04-23 01:04 | 32.06343 | -105.50984 | 31978 ft | 440 kts | 261° |
| 2026-04-23 01:04 | 32.04808 | -105.61665 | 31983 ft | 440 kts | 260° |
| 2026-04-23 01:05 | 32.03782 | -105.68774 | 31980 ft | 440 kts | 260° |
| 2026-04-23 01:05 | 32.02750 | -105.75887 | 31979 ft | 440 kts | 260° |
| 2026-04-23 01:06 | 32.01883 | -105.81848 | 31982 ft | 440 kts | 260° |
| 2026-04-23 01:06 | 32.00844 | -105.88957 | 31983 ft | 440 kts | 260° |
| 2026-04-23 01:07 | 31.99808 | -105.96025 | 31983 ft | 440 kts | 260° |
| 2026-04-23 01:07 | 31.98761 | -106.03133 | 31983 ft | 440 kts | 260° |
| 2026-04-23 01:08 | 31.97711 | -106.10233 | 31978 ft | 440 kts | 260° |
| 2026-04-23 01:08 | 31.96657 | -106.17335 | 31981 ft | 440 kts | 260° |
| 2026-04-23 01:09 | 31.95634 | -106.24444 | 31979 ft | 440 kts | 264° |
| 2026-04-23 01:09 | 31.95721 | -106.31625 | 31983 ft | 439 kts | 276° |
| 2026-04-23 01:10 | 31.96468 | -106.38780 | 31979 ft | 440 kts | 278° |
| 2026-04-23 01:10 | 31.97338 | -106.45924 | 31982 ft | 440 kts | 278° |
| 2026-04-23 01:11 | 31.98195 | -106.53006 | 31977 ft | 440 kts | 278° |
| 2026-04-23 01:11 | 31.99033 | -106.60146 | 31981 ft | 440 kts | 278° |
| 2026-04-23 01:12 | 31.99857 | -106.67287 | 31981 ft | 440 kts | 278° |
| 2026-04-23 01:12 | 32.00674 | -106.74426 | 31983 ft | 440 kts | 278° |
| 2026-04-23 01:13 | 32.01489 | -106.81570 | 31978 ft | 440 kts | 278° |
| 2026-04-23 01:13 | 32.02300 | -106.88708 | 31983 ft | 440 kts | 278° |
| 2026-04-23 01:14 | 32.03108 | -106.95862 | 31979 ft | 440 kts | 278° |
| 2026-04-23 01:14 | 32.03911 | -107.03008 | 31980 ft | 440 kts | 278° |
| 2026-04-23 01:15 | 32.04711 | -107.10155 | 31982 ft | 440 kts | 278° |
| 2026-04-23 01:15 | 32.05506 | -107.17302 | 31977 ft | 440 kts | 277° |
| 2026-04-23 01:16 | 32.06298 | -107.24458 | 31978 ft | 440 kts | 277° |
| 2026-04-23 01:16 | 32.07080 | -107.31566 | 31981 ft | 440 kts | 277° |
| 2026-04-23 01:17 | 32.07863 | -107.38716 | 31982 ft | 440 kts | 277° |
| 2026-04-23 01:17 | 32.08642 | -107.45867 | 31978 ft | 440 kts | 277° |
| 2026-04-23 01:18 | 32.09418 | -107.53024 | 31983 ft | 440 kts | 277° |
| 2026-04-23 01:18 | 32.10190 | -107.60184 | 31983 ft | 440 kts | 277° |
| 2026-04-23 01:19 | 32.10957 | -107.67345 | 31983 ft | 440 kts | 277° |
| 2026-04-23 01:19 | 32.11721 | -107.74505 | 31983 ft | 440 kts | 277° |
| 2026-04-23 01:20 | 32.12480 | -107.81666 | 31981 ft | 440 kts | 277° |
| 2026-04-23 01:20 | 32.13235 | -107.88825 | 31981 ft | 440 kts | 277° |
| 2026-04-23 01:21 | 32.13986 | -107.95990 | 31976 ft | 440 kts | 277° |
| 2026-04-23 01:21 | 32.14734 | -108.03154 | 31980 ft | 440 kts | 277° |
| 2026-04-23 01:22 | 32.15477 | -108.10325 | 31983 ft | 440 kts | 277° |
| 2026-04-23 01:22 | 32.16216 | -108.17491 | 31980 ft | 440 kts | 277° |
| 2026-04-23 01:23 | 32.16952 | -108.24666 | 31977 ft | 440 kts | 277° |
| 2026-04-23 01:23 | 32.17678 | -108.31788 | 31983 ft | 440 kts | 277° |
| 2026-04-23 01:24 | 32.18406 | -108.38961 | 31979 ft | 440 kts | 277° |
| 2026-04-23 01:24 | 32.19129 | -108.46137 | 31983 ft | 440 kts | 277° |
| 2026-04-23 01:25 | 32.19849 | -108.53315 | 31980 ft | 440 kts | 277° |
| 2026-04-23 01:25 | 32.20563 | -108.60488 | 31983 ft | 440 kts | 277° |
| 2026-04-23 01:26 | 32.21274 | -108.67664 | 31979 ft | 440 kts | 277° |
| 2026-04-23 01:26 | 32.21982 | -108.74846 | 31981 ft | 440 kts | 277° |
| 2026-04-23 01:27 | 32.22680 | -108.81981 | 31983 ft | 440 kts | 277° |
| 2026-04-23 01:27 | 32.23380 | -108.89171 | 31983 ft | 440 kts | 277° |
| 2026-04-23 01:28 | 32.24075 | -108.96351 | 31979 ft | 440 kts | 277° |
| 2026-04-23 01:28 | 32.24766 | -109.03539 | 31978 ft | 440 kts | 277° |
| 2026-04-23 01:29 | 32.25453 | -109.10720 | 31983 ft | 440 kts | 277° |
| 2026-04-23 01:29 | 32.26136 | -109.17909 | 31978 ft | 440 kts | 276° |
| 2026-04-23 01:30 | 32.26934 | -109.25036 | 31978 ft | 439 kts | 283° |
| 2026-04-23 01:30 | 32.28862 | -109.31874 | 31979 ft | 439 kts | 291° |
| 2026-04-23 01:31 | 32.31159 | -109.38560 | 31984 ft | 439 kts | 293° |
| 2026-04-23 01:31 | 32.33524 | -109.45221 | 31981 ft | 439 kts | 293° |
| 2026-04-23 01:32 | 32.35874 | -109.51881 | 31981 ft | 439 kts | 293° |
| 2026-04-23 01:32 | 32.38206 | -109.58561 | 31979 ft | 439 kts | 292° |
| 2026-04-23 01:33 | 32.40532 | -109.65256 | 31979 ft | 439 kts | 292° |
| 2026-04-23 01:33 | 32.42853 | -109.71956 | 32341 ft | 440 kts | 292° |
| 2026-04-23 01:34 | 32.44010 | -109.75299 | 32759 ft | 438 kts | 292° |
| 2026-04-23 01:34 | 32.45160 | -109.78625 | 33131 ft | 436 kts | 292° |
| 2026-04-23 01:34 | 32.46308 | -109.81947 | 33470 ft | 435 kts | 292° |
| 2026-04-23 01:34 | 32.47454 | -109.85268 | 33797 ft | 435 kts | 292° |
| 2026-04-23 01:35 | 32.48598 | -109.88585 | 34111 ft | 434 kts | 292° |
| 2026-04-23 01:35 | 32.49737 | -109.91893 | 34412 ft | 434 kts | 292° |
| 2026-04-23 01:35 | 32.50874 | -109.95196 | 34702 ft | 433 kts | 292° |
| 2026-04-23 01:35 | 32.52011 | -109.98505 | 34943 ft | 434 kts | 292° |
| 2026-04-23 01:36 | 32.54287 | -110.05134 | 34980 ft | 433 kts | 292° |
| 2026-04-23 01:36 | 32.56552 | -110.11750 | 34980 ft | 433 kts | 292° |
| 2026-04-23 01:37 | 32.58815 | -110.18370 | 34980 ft | 433 kts | 292° |
| 2026-04-23 01:37 | 32.61060 | -110.24951 | 34980 ft | 433 kts | 292° |
| 2026-04-23 01:38 | 32.63316 | -110.31577 | 34979 ft | 433 kts | 292° |
| 2026-04-23 01:38 | 32.65570 | -110.38212 | 34981 ft | 433 kts | 292° |
| 2026-04-23 01:39 | 32.67818 | -110.44842 | 34980 ft | 433 kts | 292° |
| 2026-04-23 01:39 | 32.70064 | -110.51479 | 34980 ft | 433 kts | 292° |
| 2026-04-23 01:40 | 32.72306 | -110.58120 | 34980 ft | 433 kts | 292° |
| 2026-04-23 01:40 | 32.74552 | -110.64784 | 34980 ft | 433 kts | 292° |
| 2026-04-23 01:41 | 32.76787 | -110.71433 | 34980 ft | 433 kts | 292° |
| 2026-04-23 01:41 | 32.79020 | -110.78086 | 34980 ft | 433 kts | 292° |
| 2026-04-23 01:42 | 32.81251 | -110.84748 | 34980 ft | 433 kts | 292° |
| 2026-04-23 01:42 | 32.83477 | -110.91411 | 34980 ft | 433 kts | 292° |
| 2026-04-23 01:43 | 32.85697 | -110.98069 | 34980 ft | 433 kts | 292° |
| 2026-04-23 01:43 | 32.87915 | -111.04732 | 34981 ft | 433 kts | 292° |
| 2026-04-23 01:44 | 32.90130 | -111.11402 | 34980 ft | 433 kts | 292° |
| 2026-04-23 01:44 | 32.91982 | -111.16990 | 34981 ft | 433 kts | 292° |
| 2026-04-23 01:45 | 32.94547 | -111.24746 | 34980 ft | 433 kts | 292° |
| 2026-04-23 01:45 | 32.96393 | -111.30340 | 34980 ft | 433 kts | 292° |
| 2026-04-23 01:46 | 32.98596 | -111.37028 | 34981 ft | 433 kts | 292° |
| 2026-04-23 01:46 | 33.00795 | -111.43717 | 34980 ft | 433 kts | 291° |
| 2026-04-23 01:47 | 33.02975 | -111.50362 | 34981 ft | 433 kts | 291° |
| 2026-04-23 01:47 | 33.05165 | -111.57056 | 34980 ft | 433 kts | 291° |
| 2026-04-23 01:48 | 33.07353 | -111.63753 | 34980 ft | 433 kts | 291° |
| 2026-04-23 01:48 | 33.09537 | -111.70453 | 34980 ft | 433 kts | 291° |
| 2026-04-23 01:49 | 33.11730 | -111.77198 | 34980 ft | 433 kts | 291° |
| 2026-04-23 01:49 | 33.13906 | -111.83901 | 34980 ft | 433 kts | 291° |
| 2026-04-23 01:50 | 33.16078 | -111.90611 | 34981 ft | 433 kts | 291° |
| 2026-04-23 01:50 | 33.18248 | -111.97325 | 34980 ft | 433 kts | 291° |
| 2026-04-23 01:51 | 33.20413 | -112.04041 | 34980 ft | 433 kts | 291° |
| 2026-04-23 01:51 | 33.22575 | -112.10761 | 34981 ft | 433 kts | 291° |
| 2026-04-23 01:52 | 33.24732 | -112.17478 | 34980 ft | 433 kts | 291° |
| 2026-04-23 01:52 | 33.26886 | -112.24203 | 34982 ft | 433 kts | 291° |
| 2026-04-23 01:53 | 33.29037 | -112.30931 | 34980 ft | 433 kts | 291° |
| 2026-04-23 01:53 | 33.31184 | -112.37663 | 34980 ft | 433 kts | 291° |
| 2026-04-23 01:54 | 33.33327 | -112.44398 | 34980 ft | 433 kts | 291° |
| 2026-04-23 01:54 | 33.35466 | -112.51133 | 34981 ft | 433 kts | 291° |
| 2026-04-23 01:55 | 33.37602 | -112.57872 | 34980 ft | 433 kts | 291° |
| 2026-04-23 01:55 | 33.39735 | -112.64619 | 34980 ft | 433 kts | 291° |
| 2026-04-23 01:56 | 33.41863 | -112.71365 | 34980 ft | 433 kts | 291° |
| 2026-04-23 01:56 | 33.43989 | -112.78118 | 34981 ft | 433 kts | 291° |
| 2026-04-23 01:57 | 33.46163 | -112.84848 | 34979 ft | 433 kts | 293° |
| 2026-04-23 01:57 | 33.48531 | -112.91493 | 34981 ft | 433 kts | 294° |
| 2026-04-23 01:58 | 33.50940 | -112.98112 | 34981 ft | 433 kts | 294° |
| 2026-04-23 01:58 | 33.53330 | -113.04740 | 34980 ft | 433 kts | 294° |
| 2026-04-23 01:59 | 33.55702 | -113.11381 | 34981 ft | 433 kts | 293° |
| 2026-04-23 01:59 | 33.58066 | -113.18029 | 34981 ft | 433 kts | 293° |
| 2026-04-23 02:00 | 33.60410 | -113.24633 | 34980 ft | 433 kts | 293° |
| 2026-04-23 02:00 | 33.62783 | -113.31332 | 34980 ft | 433 kts | 293° |
| 2026-04-23 02:01 | 33.65138 | -113.37992 | 34981 ft | 433 kts | 293° |
| 2026-04-23 02:01 | 33.67486 | -113.44647 | 34980 ft | 433 kts | 293° |
| 2026-04-23 02:02 | 33.69836 | -113.51321 | 34980 ft | 433 kts | 293° |
| 2026-04-23 02:02 | 33.72178 | -113.57985 | 34980 ft | 433 kts | 293° |
| 2026-04-23 02:03 | 33.74501 | -113.64609 | 34980 ft | 433 kts | 293° |
| 2026-04-23 02:03 | 33.76838 | -113.71286 | 34980 ft | 433 kts | 293° |
| 2026-04-23 02:04 | 33.79170 | -113.77967 | 34981 ft | 433 kts | 293° |
| 2026-04-23 02:04 | 33.81480 | -113.84658 | 34981 ft | 433 kts | 292° |
| 2026-04-23 02:05 | 33.83758 | -113.91363 | 34981 ft | 433 kts | 292° |
| 2026-04-23 02:05 | 33.86032 | -113.98082 | 34981 ft | 433 kts | 292° |
| 2026-04-23 02:06 | 33.88304 | -114.04799 | 34981 ft | 433 kts | 292° |
| 2026-04-23 02:06 | 33.90263 | -114.11635 | 34981 ft | 433 kts | 279° |
| 2026-04-23 02:07 | 33.90691 | -114.18865 | 34981 ft | 434 kts | 272° |
| 2026-04-23 02:07 | 33.90890 | -114.26137 | 34981 ft | 434 kts | 272° |
| 2026-04-23 02:08 | 33.91070 | -114.33400 | 34980 ft | 434 kts | 272° |
| 2026-04-23 02:08 | 33.91245 | -114.40666 | 34980 ft | 434 kts | 272° |
| 2026-04-23 02:09 | 33.91415 | -114.47931 | 34981 ft | 434 kts | 272° |
| 2026-04-23 02:09 | 33.91581 | -114.55203 | 34968 ft | 434 kts | 272° |
| 2026-04-23 02:10 | 33.91662 | -114.58835 | 34741 ft | 433 kts | 271° |
| 2026-04-23 02:10 | 33.91742 | -114.62462 | 34486 ft | 434 kts | 271° |
| 2026-04-23 02:10 | 33.91822 | -114.66097 | 34243 ft | 435 kts | 271° |
| 2026-04-23 02:10 | 33.91900 | -114.69737 | 33985 ft | 435 kts | 271° |
| 2026-04-23 02:11 | 33.91977 | -114.73381 | 33734 ft | 436 kts | 271° |
| 2026-04-23 02:11 | 33.92053 | -114.77028 | 33484 ft | 436 kts | 271° |
| 2026-04-23 02:11 | 33.92129 | -114.80692 | 33232 ft | 437 kts | 271° |
| 2026-04-23 02:11 | 33.92203 | -114.84350 | 32982 ft | 437 kts | 271° |
| 2026-04-23 02:12 | 33.92276 | -114.88008 | 32731 ft | 438 kts | 271° |
| 2026-04-23 02:12 | 33.92349 | -114.91679 | 32487 ft | 438 kts | 271° |
| 2026-04-23 02:12 | 33.92420 | -114.95345 | 32236 ft | 439 kts | 272° |
| 2026-04-23 02:12 | 33.92499 | -114.99027 | 32244 ft | 442 kts | 271° |
| 2026-04-23 02:13 | 33.92633 | -115.06444 | 31922 ft | 439 kts | 271° |
| 2026-04-23 02:13 | 33.92698 | -115.10112 | 31769 ft | 437 kts | 271° |
| 2026-04-23 02:13 | 33.92763 | -115.13787 | 31934 ft | 442 kts | 271° |
| 2026-04-23 02:14 | 33.92891 | -115.21177 | 31978 ft | 440 kts | 271° |
| 2026-04-23 02:14 | 33.93015 | -115.28550 | 31983 ft | 440 kts | 271° |
| 2026-04-23 02:15 | 33.93194 | -115.39605 | 31983 ft | 440 kts | 271° |
| 2026-04-23 02:16 | 33.93306 | -115.46934 | 31977 ft | 440 kts | 271° |
| 2026-04-23 02:16 | 33.93531 | -115.54304 | 31980 ft | 440 kts | 277° |
| 2026-04-23 02:17 | 33.95181 | -115.61346 | 31977 ft | 438 kts | 297° |
| 2026-04-23 02:17 | 33.96757 | -115.64485 | 31983 ft | 437 kts | 308° |
| 2026-04-23 02:17 | 33.98793 | -115.67193 | 31982 ft | 436 kts | 319° |
| 2026-04-23 02:17 | 34.01231 | -115.69358 | 31981 ft | 435 kts | 331° |
| 2026-04-23 02:18 | 34.03989 | -115.70831 | 31980 ft | 434 kts | 343° |
| 2026-04-23 02:18 | 34.06943 | -115.71534 | 31982 ft | 433 kts | 356° |
| 2026-04-23 02:18 | 34.09941 | -115.71430 | 31981 ft | 432 kts | 9° |
| 2026-04-23 02:19 | 34.15756 | -115.69642 | 31980 ft | 432 kts | 11° |
| 2026-04-23 02:19 | 34.21759 | -115.69452 | 31978 ft | 434 kts | 351° |
| 2026-04-23 02:19 | 34.24689 | -115.70333 | 31982 ft | 435 kts | 340° |
| 2026-04-23 02:20 | 34.27430 | -115.71879 | 31977 ft | 435 kts | 329° |
| 2026-04-23 02:20 | 34.31292 | -115.75762 | 31860 ft | 435 kts | 311° |
| 2026-04-23 02:20 | 34.33105 | -115.78687 | 31621 ft | 434 kts | 307° |
| 2026-04-23 02:21 | 34.35175 | -115.81315 | 31392 ft | 431 kts | 324° |
| 2026-04-23 02:21 | 34.37772 | -115.83061 | 31174 ft | 427 kts | 341° |
| 2026-04-23 02:21 | 34.40663 | -115.83771 | 30943 ft | 424 kts | 359° |
| 2026-04-23 02:21 | 34.43577 | -115.83384 | 30719 ft | 421 kts | 17° |
| 2026-04-23 02:22 | 34.46236 | -115.81940 | 30495 ft | 418 kts | 34° |
| 2026-04-23 02:22 | 34.48377 | -115.79594 | 30270 ft | 416 kts | 52° |
| 2026-04-23 02:22 | 34.49831 | -115.76580 | 30049 ft | 415 kts | 67° |
| 2026-04-23 02:22 | 34.50855 | -115.73314 | 29818 ft | 414 kts | 70° |
| 2026-04-23 02:23 | 34.51805 | -115.70014 | 29599 ft | 414 kts | 71° |
| 2026-04-23 02:23 | 34.52743 | -115.66722 | 29373 ft | 413 kts | 71° |
| 2026-04-23 02:23 | 34.53679 | -115.63437 | 29150 ft | 411 kts | 71° |
| 2026-04-23 02:23 | 34.54613 | -115.60162 | 28924 ft | 410 kts | 71° |
| 2026-04-23 02:24 | 34.55542 | -115.56903 | 28699 ft | 408 kts | 71° |
| 2026-04-23 02:24 | 34.56468 | -115.53655 | 28473 ft | 407 kts | 71° |
| 2026-04-23 02:24 | 34.57393 | -115.50410 | 28249 ft | 405 kts | 71° |
| 2026-04-23 02:24 | 34.58315 | -115.47178 | 28025 ft | 404 kts | 71° |
| 2026-04-23 02:25 | 34.59232 | -115.43965 | 27800 ft | 403 kts | 71° |
| 2026-04-23 02:25 | 34.60147 | -115.40760 | 27575 ft | 401 kts | 71° |
| 2026-04-23 02:25 | 34.61097 | -115.37584 | 27318 ft | 400 kts | 70° |
| 2026-04-23 02:25 | 34.61865 | -115.34351 | 27195 ft | 399 kts | 78° |
| 2026-04-23 02:26 | 34.62280 | -115.31031 | 27050 ft | 397 kts | 86° |
| 2026-04-23 02:26 | 34.62129 | -115.27695 | 26885 ft | 396 kts | 102° |
| 2026-04-23 02:26 | 34.61155 | -115.24588 | 26733 ft | 395 kts | 121° |
| 2026-04-23 02:26 | 34.59379 | -115.22068 | 26613 ft | 395 kts | 141° |
| 2026-04-23 02:27 | 34.56985 | -115.20450 | 26498 ft | 396 kts | 161° |
| 2026-04-23 02:27 | 34.54271 | -115.19971 | 26397 ft | 397 kts | 182° |
| 2026-04-23 02:27 | 34.51595 | -115.20736 | 26299 ft | 398 kts | 205° |
| 2026-04-23 02:27 | 34.49412 | -115.22743 | 26098 ft | 397 kts | 230° |
| 2026-04-23 02:28 | 34.48107 | -115.25659 | 25761 ft | 396 kts | 254° |
| 2026-04-23 02:28 | 34.47722 | -115.28909 | 25464 ft | 396 kts | 270° |
| 2026-04-23 02:28 | 34.47594 | -115.32281 | 25227 ft | 396 kts | 259° |
| 2026-04-23 02:28 | 34.46930 | -115.35506 | 25008 ft | 394 kts | 257° |
| 2026-04-23 02:29 | 34.46324 | -115.38701 | 24788 ft | 394 kts | 257° |
| 2026-04-23 02:29 | 34.45746 | -115.41944 | 24562 ft | 393 kts | 258° |
| 2026-04-23 02:29 | 34.45206 | -115.45179 | 24336 ft | 391 kts | 259° |
| 2026-04-23 02:29 | 34.44689 | -115.48413 | 24113 ft | 390 kts | 259° |
| 2026-04-23 02:30 | 34.44188 | -115.51634 | 23887 ft | 389 kts | 259° |
| 2026-04-23 02:30 | 34.43693 | -115.54851 | 23662 ft | 387 kts | 259° |
| 2026-04-23 02:30 | 34.43204 | -115.58054 | 23436 ft | 386 kts | 259° |
| 2026-04-23 02:30 | 34.42717 | -115.61251 | 23211 ft | 385 kts | 259° |
| 2026-04-23 02:31 | 34.42232 | -115.64438 | 22987 ft | 383 kts | 259° |
| 2026-04-23 02:31 | 34.41747 | -115.67620 | 22761 ft | 382 kts | 259° |
| 2026-04-23 02:31 | 34.41266 | -115.70778 | 22535 ft | 381 kts | 259° |
| 2026-04-23 02:31 | 34.40785 | -115.73931 | 22312 ft | 380 kts | 259° |
| 2026-04-23 02:32 | 34.40305 | -115.77069 | 22088 ft | 378 kts | 259° |
| 2026-04-23 02:32 | 34.39825 | -115.80202 | 21989 ft | 378 kts | 259° |
| 2026-04-23 02:32 | 34.39346 | -115.83325 | 21974 ft | 377 kts | 259° |
| 2026-04-23 02:32 | 34.38866 | -115.86445 | 21975 ft | 377 kts | 259° |
| 2026-04-23 02:33 | 34.38387 | -115.89560 | 21984 ft | 376 kts | 259° |
| 2026-04-23 02:33 | 34.37906 | -115.92675 | 21980 ft | 376 kts | 259° |
| 2026-04-23 02:33 | 34.37425 | -115.95792 | 21982 ft | 376 kts | 259° |
| 2026-04-23 02:33 | 34.36943 | -115.98909 | 21984 ft | 376 kts | 259° |
| 2026-04-23 02:34 | 34.36467 | -116.01977 | 21977 ft | 376 kts | 259° |
| 2026-04-23 02:34 | 34.35983 | -116.05091 | 21983 ft | 376 kts | 259° |
| 2026-04-23 02:34 | 34.35500 | -116.08199 | 21857 ft | 375 kts | 259° |
| 2026-04-23 02:34 | 34.35018 | -116.11302 | 21615 ft | 375 kts | 259° |
| 2026-04-23 02:35 | 34.34535 | -116.14398 | 21365 ft | 374 kts | 259° |
| 2026-04-23 02:35 | 34.34052 | -116.17482 | 21115 ft | 373 kts | 259° |
| 2026-04-23 02:35 | 34.33570 | -116.20557 | 20865 ft | 371 kts | 259° |
| 2026-04-23 02:35 | 34.33087 | -116.23628 | 20615 ft | 370 kts | 259° |
| 2026-04-23 02:36 | 34.32607 | -116.26681 | 20365 ft | 368 kts | 259° |
| 2026-04-23 02:36 | 34.32129 | -116.29717 | 20115 ft | 367 kts | 259° |
| 2026-04-23 02:36 | 34.31650 | -116.32753 | 19865 ft | 366 kts | 259° |
| 2026-04-23 02:36 | 34.31174 | -116.35765 | 19615 ft | 364 kts | 259° |
| 2026-04-23 02:37 | 34.30698 | -116.38773 | 19365 ft | 363 kts | 259° |
| 2026-04-23 02:37 | 34.30223 | -116.41770 | 19115 ft | 362 kts | 259° |
| 2026-04-23 02:37 | 34.29749 | -116.44753 | 18996 ft | 361 kts | 259° |
| 2026-04-23 02:37 | 34.29274 | -116.47740 | 18980 ft | 361 kts | 259° |
| 2026-04-23 02:38 | 34.28800 | -116.50715 | 18980 ft | 360 kts | 259° |
| 2026-04-23 02:38 | 34.28332 | -116.53650 | 18981 ft | 360 kts | 259° |
| 2026-04-23 02:38 | 34.27857 | -116.56624 | 18981 ft | 360 kts | 259° |
| 2026-04-23 02:38 | 34.27381 | -116.59598 | 18981 ft | 360 kts | 259° |
| 2026-04-23 02:39 | 34.26903 | -116.62580 | 18980 ft | 360 kts | 259° |
| 2026-04-23 02:39 | 34.26425 | -116.65552 | 18981 ft | 360 kts | 259° |
| 2026-04-23 02:39 | 34.25947 | -116.68526 | 18978 ft | 360 kts | 259° |
| 2026-04-23 02:39 | 34.25469 | -116.71493 | 18984 ft | 360 kts | 259° |
| 2026-04-23 02:40 | 34.24989 | -116.74471 | 18981 ft | 360 kts | 259° |
| 2026-04-23 02:40 | 34.24509 | -116.77439 | 18978 ft | 360 kts | 259° |
| 2026-04-23 02:40 | 34.24028 | -116.80412 | 18983 ft | 360 kts | 259° |
| 2026-04-23 02:40 | 34.23547 | -116.83379 | 18981 ft | 360 kts | 259° |
| 2026-04-23 02:41 | 34.23064 | -116.86351 | 18985 ft | 360 kts | 259° |
| 2026-04-23 02:41 | 34.22582 | -116.89317 | 18979 ft | 360 kts | 259° |
| 2026-04-23 02:41 | 34.22098 | -116.92288 | 18983 ft | 360 kts | 259° |
| 2026-04-23 02:41 | 34.21613 | -116.95258 | 18983 ft | 360 kts | 259° |
| 2026-04-23 02:42 | 34.21081 | -116.98214 | 18983 ft | 360 kts | 255° |
| 2026-04-23 02:42 | 34.20364 | -117.01118 | 18979 ft | 360 kts | 252° |
| 2026-04-23 02:42 | 34.19598 | -117.03968 | 18973 ft | 360 kts | 252° |
| 2026-04-23 02:42 | 34.18809 | -117.06867 | 18980 ft | 360 kts | 252° |
| 2026-04-23 02:43 | 34.18016 | -117.09779 | 18982 ft | 360 kts | 252° |
| 2026-04-23 02:43 | 34.17236 | -117.12647 | 18978 ft | 360 kts | 252° |
| 2026-04-23 02:43 | 34.16453 | -117.15521 | 18980 ft | 360 kts | 251° |
| 2026-04-23 02:43 | 34.15674 | -117.18356 | 18983 ft | 360 kts | 251° |
| 2026-04-23 02:44 | 34.14884 | -117.21231 | 18982 ft | 360 kts | 251° |
| 2026-04-23 02:44 | 34.14095 | -117.24095 | 18984 ft | 360 kts | 251° |
| 2026-04-23 02:44 | 34.13305 | -117.26965 | 18983 ft | 360 kts | 251° |
| 2026-04-23 02:44 | 34.12510 | -117.29849 | 18982 ft | 360 kts | 251° |
| 2026-04-23 02:45 | 34.11723 | -117.32698 | 18982 ft | 360 kts | 251° |
| 2026-04-23 02:45 | 34.10916 | -117.35621 | 18721 ft | 366 kts | 251° |
| 2026-04-23 02:45 | 34.10146 | -117.38541 | 17896 ft | 370 kts | 253° |
| 2026-04-23 02:45 | 34.09396 | -117.41521 | 17068 ft | 372 kts | 253° |
| 2026-04-23 02:46 | 34.08652 | -117.44501 | 16387 ft | 369 kts | 253° |
| 2026-04-23 02:46 | 34.07926 | -117.47448 | 15799 ft | 363 kts | 254° |
| 2026-04-23 02:46 | 34.07298 | -117.50336 | 15529 ft | 348 kts | 257° |
| 2026-04-23 02:46 | 34.06798 | -117.53136 | 15204 ft | 336 kts | 259° |
| 2026-04-23 02:47 | 34.06357 | -117.55892 | 14611 ft | 334 kts | 259° |
| 2026-04-23 02:47 | 34.05930 | -117.58630 | 14139 ft | 328 kts | 259° |
| 2026-04-23 02:47 | 34.05516 | -117.61276 | 14004 ft | 312 kts | 259° |
| 2026-04-23 02:47 | 34.05120 | -117.63801 | 13985 ft | 303 kts | 259° |
| 2026-04-23 02:48 | 34.04727 | -117.66297 | 13983 ft | 303 kts | 259° |
| 2026-04-23 02:48 | 34.04333 | -117.68794 | 13978 ft | 303 kts | 259° |
| 2026-04-23 02:48 | 34.03937 | -117.71292 | 13981 ft | 303 kts | 259° |
| 2026-04-23 02:48 | 34.03540 | -117.73794 | 13979 ft | 303 kts | 259° |
| 2026-04-23 02:49 | 34.03148 | -117.76264 | 13981 ft | 303 kts | 259° |
| 2026-04-23 02:49 | 34.02751 | -117.78760 | 13979 ft | 303 kts | 259° |
| 2026-04-23 02:49 | 34.02353 | -117.81260 | 13981 ft | 303 kts | 259° |
| 2026-04-23 02:49 | 34.01954 | -117.83761 | 13981 ft | 303 kts | 259° |
| 2026-04-23 02:50 | 34.01555 | -117.86257 | 13979 ft | 303 kts | 259° |
| 2026-04-23 02:50 | 34.01099 | -117.88737 | 13969 ft | 303 kts | 251° |
| 2026-04-23 02:50 | 34.00473 | -117.91172 | 13653 ft | 303 kts | 255° |
| 2026-04-23 02:50 | 34.00022 | -117.93645 | 13287 ft | 302 kts | 260° |
| 2026-04-23 02:51 | 33.99739 | -117.96141 | 12919 ft | 300 kts | 264° |
| 2026-04-23 02:51 | 33.99571 | -117.98646 | 12513 ft | 299 kts | 267° |
| 2026-04-23 02:51 | 33.99502 | -118.01141 | 12018 ft | 298 kts | 269° |
| 2026-04-23 02:51 | 33.99419 | -118.03657 | 11350 ft | 303 kts | 264° |
| 2026-04-23 02:52 | 33.99126 | -118.06189 | 10684 ft | 306 kts | 261° |
| 2026-04-23 02:52 | 33.98788 | -118.08731 | 10022 ft | 308 kts | 261° |
| 2026-04-23 02:52 | 33.98418 | -118.11251 | 9745 ft | 296 kts | 259° |
| 2026-04-23 02:52 | 33.98042 | -118.13575 | 9864 ft | 269 kts | 258° |
| 2026-04-23 02:53 | 33.97696 | -118.15695 | 9951 ft | 247 kts | 256° |
| 2026-04-23 02:53 | 33.97054 | -118.17516 | 9942 ft | 228 kts | 234° |
| 2026-04-23 02:53 | 33.95977 | -118.18806 | 9874 ft | 211 kts | 209° |
| 2026-04-23 02:53 | 33.94546 | -118.19302 | 9869 ft | 219 kts | 176° |
| 2026-04-23 02:54 | 33.93092 | -118.18781 | 9821 ft | 225 kts | 142° |
| 2026-04-23 02:54 | 33.92055 | -118.17394 | 9574 ft | 225 kts | 116° |
| 2026-04-23 02:54 | 33.91680 | -118.15575 | 9028 ft | 231 kts | 87° |
| 2026-04-23 02:54 | 33.92104 | -118.13684 | 8351 ft | 241 kts | 60° |
| 2026-04-23 02:55 | 33.93204 | -118.12089 | 7522 ft | 257 kts | 43° |
| 2026-04-23 02:55 | 33.94642 | -118.10702 | 6655 ft | 272 kts | 39° |
| 2026-04-23 02:55 | 33.96116 | -118.09210 | 5840 ft | 280 kts | 41° |
| 2026-04-23 02:55 | 33.97300 | -118.08100 | 5217 ft | 286 kts | 31° |
| 2026-04-23 02:56 | 33.98942 | -118.06900 | 4402 ft | 291 kts | 34° |
| 2026-04-23 02:56 | 34.00724 | -118.05798 | 3825 ft | 287 kts | 17° |
| 2026-04-23 02:56 | 34.02682 | -118.05535 | 3321 ft | 282 kts | 357° |
| 2026-04-23 02:56 | 34.04602 | -118.05552 | 2944 ft | 269 kts | 14° |
| 2026-04-23 02:57 | 34.06170 | -118.04558 | 2856 ft | 246 kts | 48° |
| 2026-04-23 02:57 | 34.06902 | -118.02867 | 2892 ft | 222 kts | 81° |
| 2026-04-23 02:57 | 34.06949 | -118.01049 | 2953 ft | 204 kts | 94° |
| 2026-04-23 02:57 | 34.06614 | -117.99434 | 3099 ft | 203 kts | 116° |
| 2026-04-23 02:58 | 34.05977 | -117.97909 | 3360 ft | 204 kts | 112° |
| 2026-04-23 02:58 | 34.05433 | -117.96314 | 3547 ft | 205 kts | 110° |
| 2026-04-23 02:58 | 34.04729 | -117.94821 | 3575 ft | 206 kts | 135° |
| 2026-04-23 02:58 | 34.03470 | -117.94043 | 3586 ft | 207 kts | 171° |
| 2026-04-23 02:59 | 34.02036 | -117.94284 | 3584 ft | 210 kts | 202° |
| 2026-04-23 02:59 | 34.00799 | -117.95234 | 3565 ft | 213 kts | 216° |
| 2026-04-23 02:59 | 33.99577 | -117.96254 | 3519 ft | 214 kts | 218° |
| 2026-04-23 02:59 | 33.98597 | -117.97583 | 3464 ft | 213 kts | 241° |
| 2026-04-23 03:00 | 33.98141 | -117.99273 | 3507 ft | 213 kts | 261° |
| 2026-04-23 03:00 | 33.97938 | -118.01044 | 3536 ft | 214 kts | 264° |
| 2026-04-23 03:00 | 33.97788 | -118.02807 | 3610 ft | 214 kts | 265° |
| 2026-04-23 03:00 | 33.97650 | -118.04620 | 3671 ft | 215 kts | 264° |
| 2026-04-23 03:01 | 33.97452 | -118.06406 | 3596 ft | 214 kts | 262° |
| 2026-04-23 03:01 | 33.97232 | -118.08179 | 3585 ft | 214 kts | 262° |
| 2026-04-23 03:01 | 33.97015 | -118.09959 | 3586 ft | 214 kts | 262° |
| 2026-04-23 03:01 | 33.96803 | -118.11734 | 3579 ft | 214 kts | 262° |
| 2026-04-23 03:02 | 33.96595 | -118.13511 | 3586 ft | 214 kts | 262° |
| 2026-04-23 03:02 | 33.96389 | -118.15289 | 3575 ft | 214 kts | 262° |
| 2026-04-23 03:02 | 33.96184 | -118.17070 | 3576 ft | 214 kts | 262° |
| 2026-04-23 03:02 | 33.95973 | -118.18842 | 3530 ft | 213 kts | 261° |
| 2026-04-23 03:03 | 33.95750 | -118.20507 | 3537 ft | 190 kts | 261° |
| 2026-04-23 03:03 | 33.95555 | -118.22039 | 3320 ft | 180 kts | 262° |
| 2026-04-23 03:03 | 33.95395 | -118.23504 | 3065 ft | 173 kts | 262° |
| 2026-04-23 03:03 | 33.95213 | -118.24932 | 2751 ft | 169 kts | 261° |
| 2026-04-23 03:04 | 33.95036 | -118.26323 | 2435 ft | 163 kts | 262° |
| 2026-04-23 03:04 | 33.94870 | -118.27645 | 2113 ft | 160 kts | 261° |
| 2026-04-23 03:04 | 33.94656 | -118.29148 | 1735 ft | 158 kts | 260° |
| 2026-04-23 03:04 | 33.94504 | -118.30347 | 1450 ft | 155 kts | 263° |
| 2026-04-23 03:05 | 33.94376 | -118.31615 | 1166 ft | 151 kts | 263° |
| 2026-04-23 03:05 | 33.94249 | -118.32854 | 882 ft | 147 kts | 263° |
| 2026-04-23 03:05 | 33.94131 | -118.34050 | 668 ft | 139 kts | 264° |
| 2026-04-23 03:05 | 33.94038 | -118.35156 | 518 ft | 129 kts | 265° |
| 2026-04-23 03:06 | 33.93943 | -118.36218 | 407 ft | 127 kts | 264° |
| 2026-04-23 03:06 | 33.93838 | -118.37272 | 324 ft | 127 kts | 263° |
| 2026-04-23 03:06 | 33.93727 | -118.38325 | 180 ft | 126 kts | 263° |
| 2026-04-23 03:06 | 33.93621 | -118.39366 | 153 ft | 129 kts | 263° |
| 2026-04-23 03:07 | 33.93508 | -118.40469 | 125 ft | 127 kts | 263° |
| 2026-04-23 03:07 | 33.93413 | -118.41425 | 129 ft | 83 kts | 261° |
| 2026-04-23 03:07 | 33.93399 | -118.41855 | 125 ft | 34 kts | 298° |
| 2026-04-23 03:07 | 33.93479 | -118.41904 | 127 ft | 0 kts | 352° |
| 2026-04-23 03:09 | 33.93482 | -118.41904 | 127 ft | 4 kts | 352° |
| 2026-04-23 03:09 | 33.93508 | -118.41909 | 127 ft | 4 kts | 352° |
| 2026-04-23 03:09 | 33.93585 | -118.41924 | 126 ft | 17 kts | 348° |
| 2026-04-23 03:09 | 33.93687 | -118.41888 | 127 ft | 13 kts | 71° |
| 2026-04-23 03:10 | 33.93701 | -118.41766 | 129 ft | 16 kts | 84° |
| 2026-04-23 03:10 | 33.93714 | -118.41620 | 128 ft | 18 kts | 83° |
| 2026-04-23 03:10 | 33.93731 | -118.41460 | 127 ft | 20 kts | 83° |
| 2026-04-23 03:10 | 33.93749 | -118.41283 | 125 ft | 22 kts | 83° |
| 2026-04-23 03:11 | 33.93762 | -118.41159 | 128 ft | 23 kts | 83° |
| 2026-04-23 03:11 | 33.93781 | -118.40962 | 129 ft | 24 kts | 83° |
| 2026-04-23 03:11 | 33.93801 | -118.40752 | 126 ft | 26 kts | 83° |
| 2026-04-23 03:11 | 33.93823 | -118.40532 | 125 ft | 27 kts | 83° |
| 2026-04-23 03:12 | 33.93848 | -118.40300 | 129 ft | 28 kts | 83° |
| 2026-04-23 03:12 | 33.93874 | -118.40057 | 129 ft | 30 kts | 82° |
| 2026-04-23 03:12 | 33.93901 | -118.39806 | 125 ft | 31 kts | 82° |
| 2026-04-23 03:12 | 33.93927 | -118.39547 | 124 ft | 32 kts | 83° |
| 2026-04-23 03:13 | 33.93954 | -118.39280 | 125 ft | 33 kts | 83° |
| 2026-04-23 03:13 | 33.93983 | -118.39003 | 125 ft | 34 kts | 83° |
| 2026-04-23 03:13 | 33.94012 | -118.38720 | 124 ft | 35 kts | 83° |
| 2026-04-23 03:13 | 33.94041 | -118.38431 | 124 ft | 35 kts | 83° |
| 2026-04-23 03:14 | 33.94071 | -118.38137 | 126 ft | 31 kts | 83° |
| 2026-04-23 03:14 | 33.94104 | -118.38037 | 124 ft | 7 kts | 18° |
| 2026-04-23 03:14 | 33.94155 | -118.38040 | 126 ft | 8 kts | 341° |
| 2026-04-23 03:14 | 33.94217 | -118.38053 | 126 ft | 10 kts | 359° |
| 2026-04-23 03:15 | 33.94287 | -118.38055 | 126 ft | 0 kts | 359° |
| 2026-04-23 03:15 | 33.94291 | -118.38053 | 126 ft | 1 kts | 25° |
| 2026-04-23 03:15 | 33.94292 | -118.38034 | 127 ft | 1 kts | 111° |
| 2026-04-23 03:15 | 33.94271 | -118.38029 | 125 ft | 8 kts | 180° |
| 2026-04-23 03:16 | 33.94226 | -118.38001 | 127 ft | 3 kts | 109° |
| 2026-04-23 03:16 | 33.94226 | -118.37996 | 124 ft | 0 kts | 90° |